Terminal Aerodrome Forecast
Issued by NWS

Home | Current Version | Previous Version | Text Only | Print | Product List | Glossary On
Versions: 1 2 3 4 5 6 7 8 9 10 11 12 13 14 15 16
891
FTUS42 KTAE 191134
TAFDHN
TAF
KDHN 191134Z 1912/2012 00000KT 1/4SM FG VV001
     FM191400 VRB03KT 2SM BR BKN002
     FM191600 18007KT P6SM SCT040
     FM200300 18004KT 2SM TSRA BR OVC015CB=

USA.gov is the U.S. government's official web portal to all federal, state and local government web resources and services.